sensor_id;sensor_type;location;lat;lon;timestamp;pressure;altitude;pressure_sealevel;temperature;humidity
10115;BME280;5097;43.260;27.812;2023-05-16T00:01:03;100055.31;;;15.63;74.04
10115;BME280;5097;43.260;27.812;2023-05-16T00:03:49;100023.75;;;15.34;73.89
10115;BME280;5097;43.260;27.812;2023-05-16T00:06:33;100034.03;;;15.39;74.05
10115;BME280;5097;43.260;27.812;2023-05-16T00:09:17;100040.50;;;15.48;73.59
10115;BME280;5097;43.260;27.812;2023-05-16T00:12:01;99998.75;;;15.13;73.65
10115;BME280;5097;43.260;27.812;2023-05-16T00:14:46;100009.91;;;14.94;73.99
10115;BME280;5097;43.260;27.812;2023-05-16T00:17:30;100033.22;;;14.90;74.96
10115;BME280;5097;43.260;27.812;2023-05-16T00:20:15;99998.56;;;14.16;76.54
10115;BME280;5097;43.260;27.812;2023-05-16T00:23:00;99998.34;;;14.19;76.70
10115;BME280;5097;43.260;27.812;2023-05-16T00:25:44;100037.66;;;14.39;77.29
10115;BME280;5097;43.260;27.812;2023-05-16T00:28:29;100039.16;;;14.31;76.88
10115;BME280;5097;43.260;27.812;2023-05-16T00:31:12;100036.59;;;14.42;76.21
10115;BME280;5097;43.260;27.812;2023-05-16T00:33:57;100034.25;;;14.37;76.28
10115;BME280;5097;43.260;27.812;2023-05-16T00:36:42;100027.88;;;14.27;75.98
10115;BME280;5097;43.260;27.812;2023-05-16T00:39:26;100035.97;;;14.00;77.25
10115;BME280;5097;43.260;27.812;2023-05-16T00:42:11;100034.78;;;14.17;76.98
10115;BME280;5097;43.260;27.812;2023-05-16T00:44:55;100035.56;;;14.19;76.31
10115;BME280;5097;43.260;27.812;2023-05-16T00:47:38;100035.25;;;14.11;76.74
10115;BME280;5097;43.260;27.812;2023-05-16T00:50:23;100025.56;;;14.10;76.05
10115;BME280;5097;43.260;27.812;2023-05-16T00:53:09;100038.09;;;13.82;77.00
10115;BME280;5097;43.260;27.812;2023-05-16T00:55:54;100021.94;;;13.72;77.20
10115;BME280;5097;43.260;27.812;2023-05-16T00:58:39;100040.00;;;13.80;77.58
10115;BME280;5097;43.260;27.812;2023-05-16T01:01:24;100031.72;;;13.97;77.24
10115;BME280;5097;43.260;27.812;2023-05-16T01:04:09;100031.50;;;14.00;77.22
10115;BME280;5097;43.260;27.812;2023-05-16T01:06:54;100033.41;;;13.98;77.64
10115;BME280;5097;43.260;27.812;2023-05-16T01:09:40;100027.56;;;13.80;78.71
10115;BME280;5097;43.260;27.812;2023-05-16T01:12:29;100029.47;;;14.17;77.46
10115;BME280;5097;43.260;27.812;2023-05-16T01:15:21;100034.91;;;14.28;76.50
10115;BME280;5097;43.260;27.812;2023-05-16T01:18:11;100033.84;;;13.92;77.56
10115;BME280;5097;43.260;27.812;2023-05-16T01:21:02;100019.16;;;14.38;76.12
10115;BME280;5097;43.260;27.812;2023-05-16T01:23:51;100023.16;;;14.69;74.76
10115;BME280;5097;43.260;27.812;2023-05-16T01:26:41;100034.19;;;14.76;73.88
10115;BME280;5097;43.260;27.812;2023-05-16T01:29:25;100022.50;;;14.79;73.47
10115;BME280;5097;43.260;27.812;2023-05-16T01:32:09;100028.28;;;14.72;73.54
10115;BME280;5097;43.260;27.812;2023-05-16T01:34:53;100022.13;;;14.46;75.00
10115;BME280;5097;43.260;27.812;2023-05-16T01:37:41;100030.00;;;14.35;75.97
10115;BME280;5097;43.260;27.812;2023-05-16T01:40:34;100023.41;;;14.28;76.01
10115;BME280;5097;43.260;27.812;2023-05-16T01:43:29;100025.53;;;14.48;75.28
10115;BME280;5097;43.260;27.812;2023-05-16T01:46:15;100032.22;;;14.54;75.08
10115;BME280;5097;43.260;27.812;2023-05-16T01:49:06;100026.81;;;14.30;75.32
10115;BME280;5097;43.260;27.812;2023-05-16T01:52:00;100032.78;;;14.07;75.64
10115;BME280;5097;43.260;27.812;2023-05-16T01:54:47;100030.75;;;13.98;76.50
10115;BME280;5097;43.260;27.812;2023-05-16T01:57:36;100029.94;;;14.11;76.55
10115;BME280;5097;43.260;27.812;2023-05-16T02:00:22;100025.88;;;14.18;76.28
10115;BME280;5097;43.260;27.812;2023-05-16T02:03:06;100017.69;;;14.21;75.72
10115;BME280;5097;43.260;27.812;2023-05-16T02:05:50;100023.44;;;14.15;76.43
10115;BME280;5097;43.260;27.812;2023-05-16T02:08:34;100011.09;;;14.14;76.63
10115;BME280;5097;43.260;27.812;2023-05-16T02:11:18;100017.38;;;14.13;77.72
10115;BME280;5097;43.260;27.812;2023-05-16T02:14:02;100019.19;;;14.12;77.62
10115;BME280;5097;43.260;27.812;2023-05-16T02:16:48;100011.53;;;14.20;77.67
10115;BME280;5097;43.260;27.812;2023-05-16T02:19:32;100015.97;;;14.46;76.60
10115;BME280;5097;43.260;27.812;2023-05-16T02:22:16;100018.06;;;14.66;76.13
10115;BME280;5097;43.260;27.812;2023-05-16T02:25:01;100004.53;;;14.69;75.82
10115;BME280;5097;43.260;27.812;2023-05-16T02:27:45;100006.56;;;14.53;77.21
10115;BME280;5097;43.260;27.812;2023-05-16T02:30:30;100009.53;;;14.61;77.67
10115;BME280;5097;43.260;27.812;2023-05-16T02:33:15;100012.31;;;14.72;77.91
10115;BME280;5097;43.260;27.812;2023-05-16T02:36:01;100013.19;;;14.60;78.85
10115;BME280;5097;43.260;27.812;2023-05-16T02:38:45;100011.25;;;14.75;78.75
10115;BME280;5097;43.260;27.812;2023-05-16T02:41:28;100012.19;;;14.61;79.08
10115;BME280;5097;43.260;27.812;2023-05-16T02:44:13;99980.00;;;14.53;78.20
10115;BME280;5097;43.260;27.812;2023-05-16T02:46:57;100002.94;;;15.04;77.08
10115;BME280;5097;43.260;27.812;2023-05-16T02:49:42;99969.47;;;15.13;76.37
10115;BME280;5097;43.260;27.812;2023-05-16T02:52:26;100001.91;;;15.53;74.99
10115;BME280;5097;43.260;27.812;2023-05-16T02:55:10;100011.34;;;15.46;74.71
10115;BME280;5097;43.260;27.812;2023-05-16T02:58:03;100012.31;;;15.56;74.21
10115;BME280;5097;43.260;27.812;2023-05-16T03:00:47;100017.81;;;15.66;73.30
10115;BME280;5097;43.260;27.812;2023-05-16T03:03:31;100016.84;;;15.67;73.02
10115;BME280;5097;43.260;27.812;2023-05-16T03:06:18;100021.97;;;15.82;72.99
10115;BME280;5097;43.260;27.812;2023-05-16T03:09:02;100022.97;;;15.92;72.63
10115;BME280;5097;43.260;27.812;2023-05-16T03:11:46;100007.84;;;15.92;71.75
10115;BME280;5097;43.260;27.812;2023-05-16T03:14:29;100004.63;;;15.76;72.38
10115;BME280;5097;43.260;27.812;2023-05-16T03:17:13;100001.34;;;15.72;72.69
10115;BME280;5097;43.260;27.812;2023-05-16T03:19:57;100000.47;;;15.85;71.29
10115;BME280;5097;43.260;27.812;2023-05-16T03:22:45;99994.50;;;15.46;73.32
10115;BME280;5097;43.260;27.812;2023-05-16T03:25:29;99993.59;;;15.69;73.01
10115;BME280;5097;43.260;27.812;2023-05-16T03:28:14;99973.75;;;15.62;72.44
10115;BME280;5097;43.260;27.812;2023-05-16T03:30:59;99998.13;;;15.80;71.61
10115;BME280;5097;43.260;27.812;2023-05-16T03:33:43;100006.03;;;16.04;71.10
10115;BME280;5097;43.260;27.812;2023-05-16T03:36:27;100000.59;;;15.83;71.04
10115;BME280;5097;43.260;27.812;2023-05-16T03:39:13;99996.34;;;15.92;71.10
10115;BME280;5097;43.260;27.812;2023-05-16T03:41:57;99970.44;;;16.05;70.23
10115;BME280;5097;43.260;27.812;2023-05-16T03:44:40;100003.75;;;16.45;69.61
10115;BME280;5097;43.260;27.812;2023-05-16T03:47:24;100008.72;;;16.61;69.30
10115;BME280;5097;43.260;27.812;2023-05-16T03:50:11;100011.59;;;16.69;68.55
10115;BME280;5097;43.260;27.812;2023-05-16T03:52:55;100021.03;;;16.62;68.71
10115;BME280;5097;43.260;27.812;2023-05-16T03:55:40;100039.97;;;16.70;69.01
10115;BME280;5097;43.260;27.812;2023-05-16T03:58:25;100052.31;;;16.71;68.27
10115;BME280;5097;43.260;27.812;2023-05-16T04:01:09;100027.97;;;16.42;69.91
10115;BME280;5097;43.260;27.812;2023-05-16T04:03:53;100064.78;;;16.82;68.94
10115;BME280;5097;43.260;27.812;2023-05-16T04:06:37;100063.72;;;16.73;69.31
10115;BME280;5097;43.260;27.812;2023-05-16T04:09:21;100055.25;;;16.91;67.99
10115;BME280;5097;43.260;27.812;2023-05-16T04:12:07;100051.25;;;16.17;71.13
10115;BME280;5097;43.260;27.812;2023-05-16T04:14:50;100050.31;;;15.83;73.86
10115;BME280;5097;43.260;27.812;2023-05-16T04:17:34;100038.50;;;16.09;72.85
10115;BME280;5097;43.260;27.812;2023-05-16T04:20:18;100037.25;;;15.91;73.52
10115;BME280;5097;43.260;27.812;2023-05-16T04:23:02;100040.34;;;16.77;70.53
10115;BME280;5097;43.260;27.812;2023-05-16T04:25:47;100026.66;;;17.47;67.80
10115;BME280;5097;43.260;27.812;2023-05-16T04:28:33;100037.91;;;17.62;66.54
10115;BME280;5097;43.260;27.812;2023-05-16T04:31:17;100034.22;;;17.63;66.06
10115;BME280;5097;43.260;27.812;2023-05-16T04:34:01;100028.88;;;17.84;64.15
10115;BME280;5097;43.260;27.812;2023-05-16T04:36:45;100032.81;;;17.80;63.77
10115;BME280;5097;43.260;27.812;2023-05-16T04:39:29;100032.19;;;18.08;62.94
10115;BME280;5097;43.260;27.812;2023-05-16T04:42:12;100032.03;;;17.89;64.97
10115;BME280;5097;43.260;27.812;2023-05-16T04:44:58;100026.03;;;17.22;68.58
10115;BME280;5097;43.260;27.812;2023-05-16T04:47:42;100025.78;;;16.70;71.57
10115;BME280;5097;43.260;27.812;2023-05-16T04:50:26;100035.38;;;16.27;74.00
10115;BME280;5097;43.260;27.812;2023-05-16T04:53:10;100030.56;;;17.10;70.58
10115;BME280;5097;43.260;27.812;2023-05-16T04:55:53;100035.75;;;17.76;68.45
10115;BME280;5097;43.260;27.812;2023-05-16T04:58:37;100028.56;;;18.19;65.67
10115;BME280;5097;43.260;27.812;2023-05-16T05:01:25;100024.31;;;17.74;63.87
10115;BME280;5097;43.260;27.812;2023-05-16T05:04:09;100020.91;;;18.05;61.32
10115;BME280;5097;43.260;27.812;2023-05-16T05:06:53;100025.03;;;18.50;60.04
10115;BME280;5097;43.260;27.812;2023-05-16T05:09:37;100014.59;;;18.87;58.83
10115;BME280;5097;43.260;27.812;2023-05-16T05:12:22;100012.66;;;19.29;58.33
10115;BME280;5097;43.260;27.812;2023-05-16T05:15:07;100010.81;;;19.49;57.59
10115;BME280;5097;43.260;27.812;2023-05-16T05:17:53;100016.19;;;19.68;57.16
10115;BME280;5097;43.260;27.812;2023-05-16T05:20:37;100019.44;;;19.82;56.06
10115;BME280;5097;43.260;27.812;2023-05-16T05:23:21;100013.50;;;19.88;55.90
10115;BME280;5097;43.260;27.812;2023-05-16T05:26:05;100018.56;;;19.71;55.45
10115;BME280;5097;43.260;27.812;2023-05-16T05:28:48;100023.47;;;19.96;54.98
10115;BME280;5097;43.260;27.812;2023-05-16T05:31:46;100021.78;;;20.04;55.97
10115;BME280;5097;43.260;27.812;2023-05-16T05:34:31;100026.72;;;19.99;56.38
10115;BME280;5097;43.260;27.812;2023-05-16T05:37:15;100031.00;;;20.30;55.89
10115;BME280;5097;43.260;27.812;2023-05-16T05:39:59;100031.09;;;19.90;57.73
10115;BME280;5097;43.260;27.812;2023-05-16T05:42:46;100039.13;;;20.48;56.87
10115;BME280;5097;43.260;27.812;2023-05-16T05:45:30;100037.66;;;20.63;56.61
10115;BME280;5097;43.260;27.812;2023-05-16T05:48:14;100032.81;;;20.76;55.92
10115;BME280;5097;43.260;27.812;2023-05-16T05:51:00;100016.72;;;21.49;54.02
10115;BME280;5097;43.260;27.812;2023-05-16T05:53:44;100021.34;;;21.38;54.62
10115;BME280;5097;43.260;27.812;2023-05-16T05:56:28;99997.78;;;20.68;56.28
10115;BME280;5097;43.260;27.812;2023-05-16T05:59:12;100003.44;;;20.65;56.03
10115;BME280;5097;43.260;27.812;2023-05-16T06:01:56;99995.59;;;20.54;56.17
10115;BME280;5097;43.260;27.812;2023-05-16T06:04:40;99995.50;;;20.73;55.18
10115;BME280;5097;43.260;27.812;2023-05-16T06:07:26;99993.16;;;21.87;52.91
10115;BME280;5097;43.260;27.812;2023-05-16T06:10:10;100008.06;;;21.37;54.54
10115;BME280;5097;43.260;27.812;2023-05-16T06:12:54;99991.84;;;21.47;53.38
10115;BME280;5097;43.260;27.812;2023-05-16T06:15:38;99995.75;;;22.31;51.11
10115;BME280;5097;43.260;27.812;2023-05-16T06:18:22;99981.25;;;21.27;49.52
10115;BME280;5097;43.260;27.812;2023-05-16T06:21:06;99924.34;;;20.14;51.07
10115;BME280;5097;43.260;27.812;2023-05-16T06:23:51;99982.59;;;20.59;50.50
10115;BME280;5097;43.260;27.812;2023-05-16T06:26:35;99945.06;;;19.74;49.64
10115;BME280;5097;43.260;27.812;2023-05-16T06:29:20;99947.50;;;21.06;48.58
10115;BME280;5097;43.260;27.812;2023-05-16T06:32:04;99969.53;;;20.74;48.62
10115;BME280;5097;43.260;27.812;2023-05-16T06:34:49;99932.69;;;21.20;45.64
10115;BME280;5097;43.260;27.812;2023-05-16T06:37:33;99933.25;;;20.88;46.25
10115;BME280;5097;43.260;27.812;2023-05-16T06:40:18;99920.59;;;20.98;43.70
10115;BME280;5097;43.260;27.812;2023-05-16T06:43:02;99951.22;;;21.68;48.27
10115;BME280;5097;43.260;27.812;2023-05-16T06:45:46;99964.81;;;22.27;46.94
10115;BME280;5097;43.260;27.812;2023-05-16T06:48:30;99956.81;;;21.74;46.52
10115;BME280;5097;43.260;27.812;2023-05-16T06:51:14;99970.94;;;22.37;44.69
10115;BME280;5097;43.260;27.812;2023-05-16T06:53:59;99959.41;;;22.19;41.12
10115;BME280;5097;43.260;27.812;2023-05-16T06:56:46;99971.34;;;22.24;41.25
10115;BME280;5097;43.260;27.812;2023-05-16T06:59:30;99970.16;;;22.19;41.74
10115;BME280;5097;43.260;27.812;2023-05-16T07:02:14;99983.97;;;22.24;41.39
10115;BME280;5097;43.260;27.812;2023-05-16T07:04:58;99985.72;;;22.76;45.29
10115;BME280;5097;43.260;27.812;2023-05-16T07:07:45;99985.84;;;22.74;47.16
10115;BME280;5097;43.260;27.812;2023-05-16T07:10:29;99999.38;;;22.14;49.84
10115;BME280;5097;43.260;27.812;2023-05-16T07:13:14;100001.00;;;21.98;50.77
10115;BME280;5097;43.260;27.812;2023-05-16T07:15:58;100004.19;;;22.02;51.15
10115;BME280;5097;43.260;27.812;2023-05-16T07:18:42;99997.50;;;21.80;51.68
10115;BME280;5097;43.260;27.812;2023-05-16T07:21:26;100005.66;;;21.52;52.17
10115;BME280;5097;43.260;27.812;2023-05-16T07:24:10;99987.72;;;21.16;52.64
10115;BME280;5097;43.260;27.812;2023-05-16T07:26:54;99979.88;;;21.41;52.67
10115;BME280;5097;43.260;27.812;2023-05-16T07:29:40;99978.25;;;21.66;52.19
10115;BME280;5097;43.260;27.812;2023-05-16T07:32:24;99985.09;;;21.87;51.82
10115;BME280;5097;43.260;27.812;2023-05-16T07:35:08;99992.72;;;22.26;50.91
10115;BME280;5097;43.260;27.812;2023-05-16T07:37:53;99997.09;;;22.27;50.69
10115;BME280;5097;43.260;27.812;2023-05-16T07:40:37;99985.16;;;21.95;51.28
10115;BME280;5097;43.260;27.812;2023-05-16T07:43:20;99992.38;;;21.95;51.80
10115;BME280;5097;43.260;27.812;2023-05-16T07:46:06;99996.22;;;22.18;50.87
10115;BME280;5097;43.260;27.812;2023-05-16T07:48:50;100001.13;;;21.70;52.22
10115;BME280;5097;43.260;27.812;2023-05-16T07:51:34;100009.50;;;21.67;51.81
10115;BME280;5097;43.260;27.812;2023-05-16T07:54:18;100008.88;;;21.73;51.67
10115;BME280;5097;43.260;27.812;2023-05-16T07:57:02;100018.97;;;21.53;52.17
10115;BME280;5097;43.260;27.812;2023-05-16T07:59:46;100017.66;;;21.75;52.03
10115;BME280;5097;43.260;27.812;2023-05-16T08:02:31;100031.78;;;21.41;53.10
10115;BME280;5097;43.260;27.812;2023-05-16T08:05:16;100028.25;;;21.41;53.10
10115;BME280;5097;43.260;27.812;2023-05-16T08:08:00;100036.00;;;21.44;53.29
10115;BME280;5097;43.260;27.812;2023-05-16T08:10:44;100034.78;;;21.56;52.70
10115;BME280;5097;43.260;27.812;2023-05-16T08:13:28;100029.63;;;21.63;51.90
10115;BME280;5097;43.260;27.812;2023-05-16T08:16:13;100039.09;;;22.20;50.74
10115;BME280;5097;43.260;27.812;2023-05-16T08:18:58;100042.84;;;22.01;50.88
10115;BME280;5097;43.260;27.812;2023-05-16T08:21:42;100026.91;;;22.07;51.69
10115;BME280;5097;43.260;27.812;2023-05-16T08:24:26;100026.91;;;22.68;49.59
10115;BME280;5097;43.260;27.812;2023-05-16T08:27:10;100033.72;;;22.97;49.02
10115;BME280;5097;43.260;27.812;2023-05-16T08:29:54;100023.97;;;22.19;50.61
10115;BME280;5097;43.260;27.812;2023-05-16T08:32:38;100035.84;;;22.08;50.67
10115;BME280;5097;43.260;27.812;2023-05-16T08:35:24;100034.53;;;22.38;49.71
10115;BME280;5097;43.260;27.812;2023-05-16T08:38:08;100023.78;;;22.38;50.10
10115;BME280;5097;43.260;27.812;2023-05-16T08:40:52;100025.00;;;22.26;50.63
10115;BME280;5097;43.260;27.812;2023-05-16T08:43:36;100027.53;;;22.54;49.48
10115;BME280;5097;43.260;27.812;2023-05-16T08:46:21;100002.50;;;22.62;49.34
10115;BME280;5097;43.260;27.812;2023-05-16T08:49:07;100016.53;;;22.90;48.44
10115;BME280;5097;43.260;27.812;2023-05-16T08:51:56;100013.59;;;23.51;47.18
10115;BME280;5097;43.260;27.812;2023-05-16T08:54:43;100005.50;;;23.84;46.56
10115;BME280;5097;43.260;27.812;2023-05-16T08:57:40;100002.81;;;23.51;47.24
10115;BME280;5097;43.260;27.812;2023-05-16T09:00:25;100010.22;;;23.73;46.25
10115;BME280;5097;43.260;27.812;2023-05-16T09:03:09;100008.53;;;23.64;46.25
10115;BME280;5097;43.260;27.812;2023-05-16T09:05:53;100001.78;;;24.01;45.64
10115;BME280;5097;43.260;27.812;2023-05-16T09:08:40;100012.66;;;24.24;45.21
10115;BME280;5097;43.260;27.812;2023-05-16T09:11:24;99999.06;;;24.09;45.19
10115;BME280;5097;43.260;27.812;2023-05-16T09:14:08;99998.34;;;24.24;45.09
10115;BME280;5097;43.260;27.812;2023-05-16T09:17:02;99993.00;;;24.47;44.18
10115;BME280;5097;43.260;27.812;2023-05-16T09:19:47;99985.09;;;24.06;43.59
10115;BME280;5097;43.260;27.812;2023-05-16T09:22:34;99983.41;;;24.44;44.12
10115;BME280;5097;43.260;27.812;2023-05-16T09:25:20;99982.25;;;24.79;43.46
10115;BME280;5097;43.260;27.812;2023-05-16T09:28:09;99980.06;;;25.05;42.95
10115;BME280;5097;43.260;27.812;2023-05-16T09:30:53;99969.94;;;24.76;42.96
10115;BME280;5097;43.260;27.812;2023-05-16T09:33:41;99936.56;;;25.38;42.15
10115;BME280;5097;43.260;27.812;2023-05-16T09:36:25;99968.75;;;26.31;39.87
10115;BME280;5097;43.260;27.812;2023-05-16T09:39:09;99975.13;;;25.70;40.38
10115;BME280;5097;43.260;27.812;2023-05-16T09:41:57;99967.94;;;26.16;39.44
10115;BME280;5097;43.260;27.812;2023-05-16T09:44:41;99970.66;;;26.67;37.95
10115;BME280;5097;43.260;27.812;2023-05-16T09:47:28;99965.28;;;26.37;38.46
10115;BME280;5097;43.260;27.812;2023-05-16T09:50:13;99970.09;;;26.72;37.99
10115;BME280;5097;43.260;27.812;2023-05-16T09:52:59;99973.13;;;26.47;37.36
10115;BME280;5097;43.260;27.812;2023-05-16T09:55:43;99978.00;;;26.37;38.36
10115;BME280;5097;43.260;27.812;2023-05-16T09:58:30;99963.59;;;25.38;40.87
10115;BME280;5097;43.260;27.812;2023-05-16T10:01:14;99981.00;;;25.13;42.31
10115;BME280;5097;43.260;27.812;2023-05-16T10:04:02;99973.03;;;24.96;43.00
10115;BME280;5097;43.260;27.812;2023-05-16T10:06:46;99972.03;;;24.26;44.55
10115;BME280;5097;43.260;27.812;2023-05-16T10:09:34;99972.28;;;24.48;44.78
10115;BME280;5097;43.260;27.812;2023-05-16T10:12:18;99974.44;;;24.52;44.77
10115;BME280;5097;43.260;27.812;2023-05-16T10:15:06;99957.19;;;24.22;45.07
10115;BME280;5097;43.260;27.812;2023-05-16T10:17:52;99954.88;;;24.10;45.80
10115;BME280;5097;43.260;27.812;2023-05-16T10:20:40;99949.53;;;24.73;43.73
10115;BME280;5097;43.260;27.812;2023-05-16T10:23:25;99951.56;;;24.71;44.37
10115;BME280;5097;43.260;27.812;2023-05-16T10:26:10;99946.66;;;24.98;43.36
10115;BME280;5097;43.260;27.812;2023-05-16T10:28:56;99931.34;;;25.14;43.21
10115;BME280;5097;43.260;27.812;2023-05-16T10:31:42;99937.69;;;24.43;43.80
10115;BME280;5097;43.260;27.812;2023-05-16T10:34:27;99917.22;;;24.57;43.50
10115;BME280;5097;43.260;27.812;2023-05-16T10:37:11;99935.84;;;24.75;43.27
10115;BME280;5097;43.260;27.812;2023-05-16T10:39:56;99934.03;;;24.67;43.51
10115;BME280;5097;43.260;27.812;2023-05-16T10:42:43;99920.00;;;25.41;41.60
10115;BME280;5097;43.260;27.812;2023-05-16T10:45:28;99919.63;;;24.98;41.69
10115;BME280;5097;43.260;27.812;2023-05-16T10:48:14;99917.19;;;25.35;41.06
10115;BME280;5097;43.260;27.812;2023-05-16T10:50:58;99889.72;;;25.23;40.60
10115;BME280;5097;43.260;27.812;2023-05-16T10:53:44;99911.25;;;25.84;38.92
10115;BME280;5097;43.260;27.812;2023-05-16T10:56:28;99908.91;;;25.66;38.73
10115;BME280;5097;43.260;27.812;2023-05-16T10:59:22;99902.66;;;25.81;39.15
10115;BME280;5097;43.260;27.812;2023-05-16T11:02:21;99896.13;;;25.90;39.41
10115;BME280;5097;43.260;27.812;2023-05-16T11:05:12;99894.13;;;26.07;39.26
10115;BME280;5097;43.260;27.812;2023-05-16T11:08:02;99891.47;;;25.84;39.07
10115;BME280;5097;43.260;27.812;2023-05-16T11:10:47;99889.31;;;25.94;38.54
10115;BME280;5097;43.260;27.812;2023-05-16T11:13:31;99885.41;;;26.12;38.30
10115;BME280;5097;43.260;27.812;2023-05-16T11:16:28;99884.00;;;26.16;38.21
10115;BME280;5097;43.260;27.812;2023-05-16T11:19:12;99874.19;;;26.00;38.64
10115;BME280;5097;43.260;27.812;2023-05-16T11:22:23;99877.66;;;25.49;39.97
10115;BME280;5097;43.260;27.812;2023-05-16T11:25:08;99880.28;;;25.87;38.29
10115;BME280;5097;43.260;27.812;2023-05-16T11:27:52;99886.06;;;25.84;39.07
10115;BME280;5097;43.260;27.812;2023-05-16T11:30:43;99864.50;;;25.46;41.02
10115;BME280;5097;43.260;27.812;2023-05-16T11:33:30;99876.06;;;25.01;41.89
10115;BME280;5097;43.260;27.812;2023-05-16T11:36:17;99884.03;;;25.33;41.42
10115;BME280;5097;43.260;27.812;2023-05-16T11:39:06;99851.13;;;25.29;42.40
10115;BME280;5097;43.260;27.812;2023-05-16T11:41:52;99859.50;;;25.57;41.43
10115;BME280;5097;43.260;27.812;2023-05-16T11:44:36;99834.59;;;26.29;40.55
10115;BME280;5097;43.260;27.812;2023-05-16T11:47:20;99843.53;;;26.66;39.23
10115;BME280;5097;43.260;27.812;2023-05-16T11:50:05;99855.63;;;25.97;40.27
10115;BME280;5097;43.260;27.812;2023-05-16T11:52:52;99857.69;;;26.46;39.39
10115;BME280;5097;43.260;27.812;2023-05-16T11:55:40;99850.78;;;26.65;38.77
10115;BME280;5097;43.260;27.812;2023-05-16T11:58:25;99838.59;;;27.48;37.82
10115;BME280;5097;43.260;27.812;2023-05-16T12:01:10;99819.81;;;26.96;37.60
10115;BME280;5097;43.260;27.812;2023-05-16T12:03:54;99846.56;;;27.56;36.58
10115;BME280;5097;43.260;27.812;2023-05-16T12:06:40;99845.78;;;27.69;34.72
10115;BME280;5097;43.260;27.812;2023-05-16T12:09:26;99842.69;;;27.37;34.96
10115;BME280;5097;43.260;27.812;2023-05-16T12:12:11;99833.78;;;27.50;35.20
10115;BME280;5097;43.260;27.812;2023-05-16T12:14:55;99836.56;;;27.63;34.61
10115;BME280;5097;43.260;27.812;2023-05-16T12:17:42;99834.38;;;27.80;34.86
10115;BME280;5097;43.260;27.812;2023-05-16T12:20:26;99835.09;;;27.32;35.27
10115;BME280;5097;43.260;27.812;2023-05-16T12:23:10;99824.34;;;27.81;34.89
10115;BME280;5097;43.260;27.812;2023-05-16T12:25:56;99798.31;;;27.51;34.49
10115;BME280;5097;43.260;27.812;2023-05-16T12:28:42;99807.91;;;27.96;33.96
10115;BME280;5097;43.260;27.812;2023-05-16T12:31:26;99812.59;;;27.32;36.54
10115;BME280;5097;43.260;27.812;2023-05-16T12:34:15;99813.72;;;27.16;37.43
10115;BME280;5097;43.260;27.812;2023-05-16T12:37:02;99798.94;;;27.47;38.32
10115;BME280;5097;43.260;27.812;2023-05-16T12:39:48;99780.63;;;27.62;36.50
10115;BME280;5097;43.260;27.812;2023-05-16T12:42:33;99793.47;;;27.40;37.77
10115;BME280;5097;43.260;27.812;2023-05-16T12:45:18;99791.19;;;26.65;38.23
10115;BME280;5097;43.260;27.812;2023-05-16T12:48:10;99789.28;;;27.09;37.23
10115;BME280;5097;43.260;27.812;2023-05-16T12:50:55;99786.31;;;26.75;38.90
10115;BME280;5097;43.260;27.812;2023-05-16T12:53:42;99797.22;;;26.82;39.35
10115;BME280;5097;43.260;27.812;2023-05-16T12:56:43;99790.78;;;26.68;40.07
10115;BME280;5097;43.260;27.812;2023-05-16T12:59:29;99797.28;;;26.46;40.34
10115;BME280;5097;43.260;27.812;2023-05-16T13:02:15;99789.78;;;26.04;42.17
10115;BME280;5097;43.260;27.812;2023-05-16T13:05:00;99813.69;;;25.56;44.58
10115;BME280;5097;43.260;27.812;2023-05-16T13:07:44;99801.81;;;25.72;44.10
10115;BME280;5097;43.260;27.812;2023-05-16T13:10:28;99798.72;;;25.00;44.84
10115;BME280;5097;43.260;27.812;2023-05-16T13:13:12;99801.00;;;25.71;42.79
10115;BME280;5097;43.260;27.812;2023-05-16T13:16:16;99793.84;;;26.00;41.97
10115;BME280;5097;43.260;27.812;2023-05-16T13:19:02;99791.22;;;26.22;40.26
10115;BME280;5097;43.260;27.812;2023-05-16T13:21:46;99787.00;;;26.41;39.22
10115;BME280;5097;43.260;27.812;2023-05-16T13:24:30;99784.28;;;25.68;39.73
10115;BME280;5097;43.260;27.812;2023-05-16T13:27:15;99789.28;;;24.96;41.21
10115;BME280;5097;43.260;27.812;2023-05-16T13:29:59;99790.91;;;25.65;37.86
10115;BME280;5097;43.260;27.812;2023-05-16T13:32:51;99790.28;;;26.00;37.59
10115;BME280;5097;43.260;27.812;2023-05-16T13:35:36;99797.50;;;25.92;38.81
10115;BME280;5097;43.260;27.812;2023-05-16T13:38:21;99795.66;;;26.30;39.21
10115;BME280;5097;43.260;27.812;2023-05-16T13:41:05;99791.00;;;26.45;39.17
10115;BME280;5097;43.260;27.812;2023-05-16T13:43:49;99805.63;;;26.07;40.34
10115;BME280;5097;43.260;27.812;2023-05-16T13:46:33;99813.81;;;25.99;41.37
10115;BME280;5097;43.260;27.812;2023-05-16T13:49:17;99819.56;;;26.26;41.47
10115;BME280;5097;43.260;27.812;2023-05-16T13:52:03;99819.16;;;26.66;40.64
10115;BME280;5097;43.260;27.812;2023-05-16T13:54:47;99826.41;;;26.43;41.19
10115;BME280;5097;43.260;27.812;2023-05-16T13:57:30;99815.44;;;25.79;42.95
10115;BME280;5097;43.260;27.812;2023-05-16T14:00:16;99827.25;;;25.18;44.37
10115;BME280;5097;43.260;27.812;2023-05-16T14:03:20;99812.63;;;25.27;44.48
10115;BME280;5097;43.260;27.812;2023-05-16T14:06:06;99819.47;;;25.53;44.15
10115;BME280;5097;43.260;27.812;2023-05-16T14:08:51;99819.09;;;26.22;43.29
10115;BME280;5097;43.260;27.812;2023-05-16T14:11:35;99822.09;;;26.71;42.30
10115;BME280;5097;43.260;27.812;2023-05-16T14:14:19;99831.63;;;26.67;42.12
10115;BME280;5097;43.260;27.812;2023-05-16T14:17:04;99804.00;;;25.47;43.82
10115;BME280;5097;43.260;27.812;2023-05-16T14:19:48;99817.84;;;25.29;44.62
10115;BME280;5097;43.260;27.812;2023-05-16T14:22:32;99823.97;;;24.69;46.42
10115;BME280;5097;43.260;27.812;2023-05-16T14:25:18;99819.00;;;25.79;43.85
10115;BME280;5097;43.260;27.812;2023-05-16T14:28:02;99824.78;;;25.46;44.84
10115;BME280;5097;43.260;27.812;2023-05-16T14:30:46;99818.31;;;25.32;45.53